Grizzly Air Cargo 5367


PACD
Cold Bay Airport
Cold Bay, Alaska, US
PANC
Ted Stevens Anchorage International Airport
Anchorage, Alaska, US

Activity Log

Date Flight Route Aircraft Duration
No Flights Yet

Route Details

Aircraft Information
Primary: Boeing 727-200F
Backup: Boeing 737-800BCF
Route Data
Distance: 623nm
Sched. Duration: 1h 50m
Avg. Duration: 0h 00m (-150m)
Times Flown: 0
Recm'd Route: CDB J115 TED
Planned Altitude: 31,000ft
Origin Wx: PACD 032222Z 13024G30KT 10SM SCT005 14/12 A3012 RMK AO2 PK WND 13033/2204 RAB06E15 P0000 T01390117 $
Dest. Wx: PANC 032153Z 30006KT 10SM FEW060 BKN200 22/12 A3000 RMK AO2 SLP159 T02220117 $
Notes:

Financial History
Total Freight: 0lbs
Average Load: 0lbs/flt
Fuel Used: 0lbs
Avg. Fuel Used: 0lbs/flt
Fuel Expense: $0
Avg. Fuel Expense: $0
Avg. Fuel Cost: $0/lbs
Total Gross Income: $0
Pilot Pay: $0
Total Expenses: $0
Total Revenue: $0
Average Revenue: $0